N601JG LUKK-UBBB
Flight info
| Callsign | N601JG |
|---|---|
| Flight time | 2h 36m |
| Altitude | 34000 |
| Route | LIPTA T34 KODRU DCT GLT/N0471F350 DCT BINBI/N0469F370 DCT UDROS UM859 KARDE UN644 ROLIN N644 LAGAS M747 SUBUT T923 ERLEV |
| Aircraft | CL60/M-SBDE1E2E3FGHIJ1J4J5J7M3RWXYZ/LB1V1D1 |
Departure
| Time | 2026-05-09 01:40 |
|---|---|
| Airport | Chişinău International Airport (LUKK) |
Arrival
| Time | 2026-05-09 04:16 |
|---|---|
| Airport | Heydar Aliyev International Airport (UBBB) |
| Time | Latitude | Longitude | Altitude | Speed | Heading |
|---|---|---|---|---|---|
| 2026-05-09 01:15 | 46.93353 | 28.94797 | 288 ft | 0 kts | 6° |
| 2026-05-09 01:37 | 46.93344 | 28.94766 | 289 ft | 8 kts | 194° |
| 2026-05-09 01:37 | 46.93330 | 28.94732 | 291 ft | 0 kts | 268° |
| 2026-05-09 01:37 | 46.93345 | 28.94740 | 290 ft | 10 kts | 90° |
| 2026-05-09 01:37 | 46.93313 | 28.94842 | 286 ft | 13 kts | 101° |
| 2026-05-09 01:38 | 46.93255 | 28.94951 | 284 ft | 16 kts | 149° |
| 2026-05-09 01:38 | 46.93173 | 28.95019 | 282 ft | 14 kts | 151° |
| 2026-05-09 01:38 | 46.93066 | 28.95086 | 280 ft | 18 kts | 166° |
| 2026-05-09 01:38 | 46.92934 | 28.95107 | 279 ft | 19 kts | 176° |
| 2026-05-09 01:39 | 46.92899 | 28.95109 | 279 ft | 1 kts | 179° |
| 2026-05-09 01:39 | 46.92852 | 28.95115 | 278 ft | 8 kts | 151° |
| 2026-05-09 01:39 | 46.92820 | 28.95195 | 276 ft | 3 kts | 250° |
| 2026-05-09 01:39 | 46.92816 | 28.94991 | 280 ft | 58 kts | 268° |
| 2026-05-09 01:40 | 46.92794 | 28.93903 | 311 ft | 147 kts | 268° |
| 2026-05-09 01:40 | 46.92756 | 28.92259 | 849 ft | 178 kts | 268° |
| 2026-05-09 01:40 | 46.92712 | 28.90295 | 1509 ft | 214 kts | 268° |
| 2026-05-09 01:40 | 46.92667 | 28.87973 | 2377 ft | 242 kts | 269° |
| 2026-05-09 01:41 | 46.92611 | 28.85486 | 3564 ft | 255 kts | 268° |
| 2026-05-09 01:41 | 46.92557 | 28.82895 | 4943 ft | 261 kts | 267° |
| 2026-05-09 01:41 | 46.92355 | 28.80281 | 6153 ft | 270 kts | 251° |
| 2026-05-09 01:41 | 46.91378 | 28.77980 | 7221 ft | 280 kts | 223° |
| 2026-05-09 01:42 | 46.89722 | 28.76366 | 8367 ft | 288 kts | 208° |
| 2026-05-09 01:42 | 46.87971 | 28.75127 | 9803 ft | 285 kts | 202° |
| 2026-05-09 01:42 | 46.86137 | 28.73986 | 10722 ft | 302 kts | 203° |
| 2026-05-09 01:42 | 46.84094 | 28.72673 | 11201 ft | 333 kts | 204° |
| 2026-05-09 01:43 | 46.81913 | 28.71189 | 12016 ft | 349 kts | 206° |
| 2026-05-09 01:43 | 46.79725 | 28.69616 | 13000 ft | 357 kts | 206° |
| 2026-05-09 01:43 | 46.77505 | 28.68018 | 13995 ft | 362 kts | 207° |
| 2026-05-09 01:43 | 46.75213 | 28.66372 | 14953 ft | 368 kts | 207° |
| 2026-05-09 01:44 | 46.72900 | 28.64713 | 15911 ft | 372 kts | 207° |
| 2026-05-09 01:44 | 46.70562 | 28.63038 | 16819 ft | 377 kts | 207° |
| 2026-05-09 01:44 | 46.68195 | 28.61343 | 17694 ft | 381 kts | 207° |
| 2026-05-09 01:44 | 46.65802 | 28.59632 | 18541 ft | 385 kts | 207° |
| 2026-05-09 01:45 | 46.63374 | 28.57894 | 19355 ft | 389 kts | 207° |
| 2026-05-09 01:45 | 46.61081 | 28.55847 | 20127 ft | 392 kts | 216° |
| 2026-05-09 01:45 | 46.58840 | 28.53480 | 20876 ft | 396 kts | 216° |
| 2026-05-09 01:45 | 46.56620 | 28.51141 | 21599 ft | 399 kts | 216° |
| 2026-05-09 01:46 | 46.54347 | 28.48753 | 22274 ft | 403 kts | 216° |
| 2026-05-09 01:46 | 46.52054 | 28.46349 | 22941 ft | 406 kts | 216° |
| 2026-05-09 01:46 | 46.49750 | 28.43936 | 23607 ft | 409 kts | 216° |
| 2026-05-09 01:46 | 46.47436 | 28.41519 | 24218 ft | 413 kts | 216° |
| 2026-05-09 01:47 | 46.45074 | 28.39054 | 24790 ft | 418 kts | 216° |
| 2026-05-09 01:47 | 46.42712 | 28.36594 | 25392 ft | 421 kts | 216° |
| 2026-05-09 01:47 | 46.40306 | 28.34092 | 25991 ft | 423 kts | 215° |
| 2026-05-09 01:47 | 46.37896 | 28.31587 | 26521 ft | 426 kts | 215° |
| 2026-05-09 01:48 | 46.35469 | 28.29070 | 27023 ft | 430 kts | 215° |
| 2026-05-09 01:48 | 46.33042 | 28.26553 | 27492 ft | 433 kts | 215° |
| 2026-05-09 01:48 | 46.30572 | 28.23997 | 27932 ft | 436 kts | 215° |
| 2026-05-09 01:48 | 46.28103 | 28.21446 | 28360 ft | 439 kts | 215° |
| 2026-05-09 01:49 | 46.25621 | 28.18885 | 28785 ft | 441 kts | 216° |
| 2026-05-09 01:49 | 46.23094 | 28.16280 | 29173 ft | 444 kts | 216° |
| 2026-05-09 01:49 | 46.20520 | 28.13744 | 29549 ft | 447 kts | 210° |
| 2026-05-09 01:49 | 46.17656 | 28.12024 | 29891 ft | 450 kts | 195° |
| 2026-05-09 01:50 | 46.14552 | 28.11138 | 30165 ft | 454 kts | 190° |
| 2026-05-09 01:50 | 46.11423 | 28.10336 | 30428 ft | 458 kts | 191° |
| 2026-05-09 01:50 | 46.08280 | 28.09523 | 30743 ft | 459 kts | 191° |
| 2026-05-09 01:50 | 46.05163 | 28.08721 | 31057 ft | 460 kts | 191° |
| 2026-05-09 01:51 | 46.01979 | 28.07903 | 31444 ft | 460 kts | 191° |
| 2026-05-09 01:51 | 45.98860 | 28.07104 | 31876 ft | 458 kts | 191° |
| 2026-05-09 01:51 | 45.95718 | 28.06301 | 32317 ft | 456 kts | 191° |
| 2026-05-09 01:51 | 45.92577 | 28.05500 | 32750 ft | 454 kts | 191° |
| 2026-05-09 01:52 | 45.89432 | 28.04700 | 33165 ft | 453 kts | 191° |
| 2026-05-09 01:52 | 45.86351 | 28.03917 | 33528 ft | 452 kts | 191° |
| 2026-05-09 01:52 | 45.83237 | 28.03128 | 33879 ft | 451 kts | 191° |
| 2026-05-09 01:52 | 45.80118 | 28.02338 | 34224 ft | 450 kts | 191° |
| 2026-05-09 01:53 | 45.77070 | 28.01568 | 34553 ft | 449 kts | 191° |
| 2026-05-09 01:53 | 45.73996 | 28.00792 | 34861 ft | 448 kts | 191° |
| 2026-05-09 01:53 | 45.70905 | 28.00013 | 35027 ft | 450 kts | 191° |
| 2026-05-09 01:53 | 45.67799 | 27.99230 | 35040 ft | 456 kts | 191° |
| 2026-05-09 01:54 | 45.61465 | 27.97637 | 35040 ft | 464 kts | 191° |
| 2026-05-09 01:54 | 45.55077 | 27.96035 | 35041 ft | 467 kts | 191° |
| 2026-05-09 01:55 | 45.48608 | 27.95064 | 35037 ft | 468 kts | 180° |
| 2026-05-09 01:55 | 45.42131 | 27.96125 | 35039 ft | 469 kts | 168° |
| 2026-05-09 01:56 | 45.35995 | 27.99285 | 35306 ft | 468 kts | 154° |
| 2026-05-09 01:56 | 45.33193 | 28.01604 | 35765 ft | 462 kts | 147° |
| 2026-05-09 01:56 | 45.30589 | 28.04221 | 36229 ft | 456 kts | 145° |
| 2026-05-09 01:57 | 45.28019 | 28.06856 | 36662 ft | 452 kts | 145° |
| 2026-05-09 01:57 | 45.25474 | 28.09462 | 37007 ft | 450 kts | 145° |
| 2026-05-09 01:57 | 45.20340 | 28.14719 | 37032 ft | 459 kts | 145° |
| 2026-05-09 01:58 | 45.15138 | 28.20049 | 37033 ft | 466 kts | 145° |
| 2026-05-09 01:58 | 45.09841 | 28.25473 | 37034 ft | 470 kts | 145° |
| 2026-05-09 01:59 | 45.04536 | 28.30901 | 37038 ft | 471 kts | 145° |
| 2026-05-09 01:59 | 44.99237 | 28.36316 | 37034 ft | 470 kts | 145° |
| 2026-05-09 02:00 | 44.93949 | 28.41710 | 37032 ft | 469 kts | 145° |
| 2026-05-09 02:00 | 44.88663 | 28.47093 | 37032 ft | 469 kts | 145° |
| 2026-05-09 02:01 | 44.83350 | 28.52494 | 37039 ft | 469 kts | 145° |
| 2026-05-09 02:01 | 44.78045 | 28.57876 | 37036 ft | 469 kts | 145° |
| 2026-05-09 02:02 | 44.72773 | 28.63212 | 37039 ft | 469 kts | 145° |
| 2026-05-09 02:02 | 44.67457 | 28.68583 | 37036 ft | 469 kts | 146° |
| 2026-05-09 02:03 | 44.62145 | 28.73938 | 37043 ft | 469 kts | 146° |
| 2026-05-09 02:03 | 44.56836 | 28.79277 | 37040 ft | 469 kts | 145° |
| 2026-05-09 02:04 | 44.51550 | 28.84583 | 37039 ft | 469 kts | 145° |
| 2026-05-09 02:04 | 44.46253 | 28.89887 | 37048 ft | 468 kts | 146° |
| 2026-05-09 02:05 | 44.40924 | 28.95211 | 37051 ft | 468 kts | 146° |
| 2026-05-09 02:05 | 44.35632 | 29.00488 | 37048 ft | 468 kts | 146° |
| 2026-05-09 02:06 | 44.30442 | 29.05650 | 37050 ft | 468 kts | 145° |
| 2026-05-09 02:07 | 44.22465 | 29.13563 | 37052 ft | 468 kts | 145° |
| 2026-05-09 02:07 | 44.17177 | 29.18795 | 37051 ft | 468 kts | 145° |
| 2026-05-09 02:08 | 44.11865 | 29.24038 | 37051 ft | 468 kts | 145° |
| 2026-05-09 02:08 | 44.06506 | 29.29316 | 37053 ft | 468 kts | 145° |
| 2026-05-09 02:09 | 44.01217 | 29.34513 | 37050 ft | 468 kts | 145° |
| 2026-05-09 02:09 | 43.95857 | 29.39769 | 37046 ft | 468 kts | 145° |
| 2026-05-09 02:10 | 43.90551 | 29.44959 | 37053 ft | 468 kts | 145° |
| 2026-05-09 02:10 | 43.85216 | 29.50167 | 37055 ft | 468 kts | 145° |
| 2026-05-09 02:11 | 43.79876 | 29.55370 | 37051 ft | 469 kts | 145° |
| 2026-05-09 02:11 | 43.74533 | 29.60562 | 37057 ft | 469 kts | 145° |
| 2026-05-09 02:12 | 43.69194 | 29.65801 | 37051 ft | 469 kts | 145° |
| 2026-05-09 02:12 | 43.63900 | 29.71091 | 37057 ft | 469 kts | 145° |
| 2026-05-09 02:13 | 43.58604 | 29.76371 | 37053 ft | 470 kts | 145° |
| 2026-05-09 02:13 | 43.53325 | 29.81622 | 37056 ft | 469 kts | 145° |
| 2026-05-09 02:14 | 43.48003 | 29.86902 | 37064 ft | 469 kts | 145° |
| 2026-05-09 02:14 | 43.42706 | 29.92147 | 37061 ft | 469 kts | 145° |
| 2026-05-09 02:15 | 43.37397 | 29.97392 | 37069 ft | 470 kts | 145° |
| 2026-05-09 02:15 | 43.32079 | 30.02634 | 37065 ft | 470 kts | 145° |
| 2026-05-09 02:16 | 43.26736 | 30.07888 | 37072 ft | 469 kts | 145° |
| 2026-05-09 02:16 | 43.21432 | 30.13093 | 37069 ft | 469 kts | 145° |
| 2026-05-09 02:17 | 43.16106 | 30.18308 | 37055 ft | 470 kts | 145° |
| 2026-05-09 02:17 | 43.10764 | 30.23528 | 37049 ft | 470 kts | 145° |
| 2026-05-09 02:18 | 43.05419 | 30.28740 | 37055 ft | 471 kts | 144° |
| 2026-05-09 02:18 | 43.00111 | 30.33904 | 37058 ft | 471 kts | 145° |
| 2026-05-09 02:19 | 42.94735 | 30.39123 | 37054 ft | 471 kts | 145° |
| 2026-05-09 02:19 | 42.89373 | 30.44317 | 37057 ft | 471 kts | 145° |
| 2026-05-09 02:20 | 42.84032 | 30.49488 | 37059 ft | 472 kts | 144° |
| 2026-05-09 02:20 | 42.79116 | 30.55517 | 37066 ft | 473 kts | 131° |
| 2026-05-09 02:21 | 42.75322 | 30.62837 | 37058 ft | 475 kts | 118° |
| 2026-05-09 02:21 | 42.72858 | 30.71205 | 37065 ft | 476 kts | 105° |
| 2026-05-09 02:22 | 42.71729 | 30.80194 | 37068 ft | 477 kts | 99° |
| 2026-05-09 02:22 | 42.70741 | 30.89272 | 37074 ft | 477 kts | 99° |
| 2026-05-09 02:23 | 42.69763 | 30.98334 | 37068 ft | 477 kts | 99° |
| 2026-05-09 02:23 | 42.68787 | 31.07416 | 37069 ft | 477 kts | 99° |
| 2026-05-09 02:24 | 42.67810 | 31.16522 | 37075 ft | 477 kts | 98° |
| 2026-05-09 02:24 | 42.66833 | 31.25624 | 37071 ft | 477 kts | 98° |
| 2026-05-09 02:25 | 42.65875 | 31.34527 | 37076 ft | 477 kts | 98° |
| 2026-05-09 02:25 | 42.64885 | 31.43699 | 37077 ft | 477 kts | 98° |
| 2026-05-09 02:26 | 42.63891 | 31.52847 | 37075 ft | 478 kts | 98° |
| 2026-05-09 02:26 | 42.62906 | 31.61879 | 37075 ft | 478 kts | 98° |
| 2026-05-09 02:27 | 42.61979 | 31.70319 | 37079 ft | 479 kts | 99° |
| 2026-05-09 02:27 | 42.60984 | 31.79337 | 37084 ft | 478 kts | 99° |
| 2026-05-09 02:28 | 42.59983 | 31.88335 | 37075 ft | 478 kts | 99° |
| 2026-05-09 02:28 | 42.58977 | 31.97324 | 37086 ft | 479 kts | 99° |
| 2026-05-09 02:29 | 42.57970 | 32.06390 | 37080 ft | 479 kts | 99° |
| 2026-05-09 02:29 | 42.56958 | 32.15326 | 37090 ft | 479 kts | 99° |
| 2026-05-09 02:30 | 42.55923 | 32.24387 | 37091 ft | 480 kts | 98° |
| 2026-05-09 02:30 | 42.54879 | 32.33464 | 37089 ft | 481 kts | 98° |
| 2026-05-09 02:31 | 42.53831 | 32.42505 | 37086 ft | 481 kts | 98° |
| 2026-05-09 02:31 | 42.52781 | 32.51507 | 37085 ft | 481 kts | 98° |
| 2026-05-09 02:32 | 42.51716 | 32.60579 | 37089 ft | 481 kts | 98° |
| 2026-05-09 02:32 | 42.50652 | 32.69578 | 37084 ft | 481 kts | 99° |
| 2026-05-09 02:33 | 42.49570 | 32.78666 | 37084 ft | 481 kts | 99° |
| 2026-05-09 02:33 | 42.48483 | 32.87731 | 37085 ft | 482 kts | 99° |
| 2026-05-09 02:34 | 42.47390 | 32.96785 | 37082 ft | 483 kts | 99° |
| 2026-05-09 02:34 | 42.46287 | 33.05851 | 37082 ft | 483 kts | 99° |
| 2026-05-09 02:35 | 42.45177 | 33.14923 | 37081 ft | 483 kts | 99° |
| 2026-05-09 02:35 | 42.44064 | 33.23946 | 37084 ft | 483 kts | 99° |
| 2026-05-09 02:36 | 42.42934 | 33.33045 | 37088 ft | 484 kts | 98° |
| 2026-05-09 02:36 | 42.41806 | 33.42066 | 37091 ft | 484 kts | 98° |
| 2026-05-09 02:37 | 42.40659 | 33.51184 | 37097 ft | 486 kts | 98° |
| 2026-05-09 02:37 | 42.39510 | 33.60268 | 37098 ft | 486 kts | 98° |
| 2026-05-09 02:38 | 42.38355 | 33.69332 | 37094 ft | 486 kts | 99° |
| 2026-05-09 02:38 | 42.37180 | 33.78492 | 37100 ft | 487 kts | 99° |
| 2026-05-09 02:39 | 42.36001 | 33.87621 | 37099 ft | 488 kts | 99° |
| 2026-05-09 02:39 | 42.34820 | 33.96733 | 37099 ft | 489 kts | 99° |
| 2026-05-09 02:40 | 42.33627 | 34.05892 | 37099 ft | 489 kts | 99° |
| 2026-05-09 02:40 | 42.32429 | 34.15017 | 37099 ft | 490 kts | 99° |
| 2026-05-09 02:41 | 42.31218 | 34.24190 | 37099 ft | 491 kts | 99° |
| 2026-05-09 02:41 | 42.30000 | 34.33356 | 37100 ft | 491 kts | 99° |
| 2026-05-09 02:42 | 42.28775 | 34.42508 | 37100 ft | 491 kts | 99° |
| 2026-05-09 02:42 | 42.27551 | 34.51595 | 37099 ft | 492 kts | 99° |
| 2026-05-09 02:43 | 42.26304 | 34.60788 | 37096 ft | 493 kts | 99° |
| 2026-05-09 02:43 | 42.25051 | 34.69960 | 37097 ft | 493 kts | 99° |
| 2026-05-09 02:44 | 42.23793 | 34.79116 | 37099 ft | 493 kts | 99° |
| 2026-05-09 02:44 | 42.22520 | 34.88307 | 37102 ft | 493 kts | 99° |
| 2026-05-09 02:45 | 42.21249 | 34.97423 | 37100 ft | 494 kts | 99° |
| 2026-05-09 02:45 | 42.19959 | 35.06614 | 37100 ft | 494 kts | 99° |
| 2026-05-09 02:46 | 42.18662 | 35.15796 | 37104 ft | 495 kts | 99° |
| 2026-05-09 02:46 | 42.17359 | 35.24970 | 37110 ft | 495 kts | 99° |
| 2026-05-09 02:47 | 42.16050 | 35.34129 | 37103 ft | 495 kts | 99° |
| 2026-05-09 02:47 | 42.14732 | 35.43301 | 37107 ft | 495 kts | 99° |
| 2026-05-09 02:48 | 42.13405 | 35.52500 | 37107 ft | 495 kts | 99° |
| 2026-05-09 02:48 | 42.12078 | 35.61635 | 37106 ft | 495 kts | 99° |
| 2026-05-09 02:49 | 42.10735 | 35.70835 | 37107 ft | 496 kts | 100° |
| 2026-05-09 02:49 | 42.09388 | 35.80008 | 37112 ft | 497 kts | 99° |
| 2026-05-09 02:50 | 42.08038 | 35.89148 | 37113 ft | 497 kts | 99° |
| 2026-05-09 02:50 | 42.06674 | 35.98319 | 37114 ft | 498 kts | 99° |
| 2026-05-09 02:51 | 42.05296 | 36.07541 | 37115 ft | 498 kts | 99° |
| 2026-05-09 02:51 | 42.03921 | 36.16680 | 37113 ft | 498 kts | 99° |
| 2026-05-09 02:52 | 42.02526 | 36.25903 | 37116 ft | 498 kts | 99° |
| 2026-05-09 02:52 | 42.01135 | 36.35041 | 37133 ft | 498 kts | 99° |
| 2026-05-09 02:53 | 41.99721 | 36.44280 | 37116 ft | 499 kts | 99° |
| 2026-05-09 02:53 | 41.98311 | 36.53443 | 37134 ft | 498 kts | 99° |
| 2026-05-09 02:54 | 41.96886 | 36.62650 | 37123 ft | 499 kts | 99° |
| 2026-05-09 02:54 | 41.95461 | 36.71801 | 37128 ft | 499 kts | 100° |
| 2026-05-09 02:55 | 41.94028 | 36.80954 | 37131 ft | 499 kts | 100° |
| 2026-05-09 02:55 | 41.92578 | 36.90160 | 37135 ft | 498 kts | 100° |
| 2026-05-09 02:56 | 41.91134 | 36.99285 | 37134 ft | 499 kts | 100° |
| 2026-05-09 02:56 | 41.90257 | 37.08549 | 37133 ft | 495 kts | 89° |
| 2026-05-09 02:57 | 41.90133 | 37.17804 | 37129 ft | 495 kts | 89° |
| 2026-05-09 02:57 | 41.89996 | 37.27108 | 37128 ft | 496 kts | 88° |
| 2026-05-09 02:58 | 41.89851 | 37.36403 | 37132 ft | 497 kts | 88° |
| 2026-05-09 02:58 | 41.89698 | 37.45714 | 37130 ft | 497 kts | 88° |
| 2026-05-09 02:59 | 41.89537 | 37.55058 | 37137 ft | 496 kts | 88° |
| 2026-05-09 02:59 | 41.89369 | 37.64320 | 37135 ft | 496 kts | 88° |
| 2026-05-09 03:00 | 41.89193 | 37.73599 | 37131 ft | 496 kts | 89° |
| 2026-05-09 03:00 | 41.89009 | 37.82891 | 37134 ft | 495 kts | 89° |
| 2026-05-09 03:01 | 41.88818 | 37.92145 | 37132 ft | 495 kts | 89° |
| 2026-05-09 03:01 | 41.88618 | 38.01461 | 37128 ft | 495 kts | 89° |
| 2026-05-09 03:02 | 41.88411 | 38.10768 | 37138 ft | 496 kts | 89° |
| 2026-05-09 03:02 | 41.88197 | 38.20072 | 37137 ft | 496 kts | 89° |
| 2026-05-09 03:03 | 41.87974 | 38.29372 | 37146 ft | 496 kts | 89° |
| 2026-05-09 03:03 | 41.87743 | 38.38691 | 37149 ft | 495 kts | 89° |
| 2026-05-09 03:04 | 41.87507 | 38.47943 | 37149 ft | 495 kts | 89° |
| 2026-05-09 03:04 | 41.87262 | 38.57231 | 37153 ft | 495 kts | 89° |
| 2026-05-09 03:05 | 41.87008 | 38.66555 | 37154 ft | 494 kts | 90° |
| 2026-05-09 03:05 | 41.86749 | 38.75804 | 37152 ft | 495 kts | 89° |
| 2026-05-09 03:06 | 41.86480 | 38.85117 | 37153 ft | 494 kts | 89° |
| 2026-05-09 03:06 | 41.86204 | 38.94408 | 37155 ft | 494 kts | 90° |
| 2026-05-09 03:07 | 41.85922 | 39.03661 | 37146 ft | 494 kts | 89° |
| 2026-05-09 03:07 | 41.85632 | 39.12910 | 37133 ft | 494 kts | 89° |
| 2026-05-09 03:08 | 41.85336 | 39.22145 | 37135 ft | 493 kts | 89° |
| 2026-05-09 03:08 | 41.85030 | 39.31419 | 37139 ft | 493 kts | 89° |
| 2026-05-09 03:09 | 41.84720 | 39.40609 | 37132 ft | 493 kts | 89° |
| 2026-05-09 03:09 | 41.84400 | 39.49871 | 37141 ft | 492 kts | 89° |
| 2026-05-09 03:10 | 41.84075 | 39.59073 | 37148 ft | 491 kts | 89° |
| 2026-05-09 03:10 | 41.83742 | 39.68292 | 37153 ft | 492 kts | 90° |
| 2026-05-09 03:11 | 41.83402 | 39.77528 | 37153 ft | 492 kts | 90° |
| 2026-05-09 03:11 | 41.83053 | 39.86758 | 37149 ft | 493 kts | 90° |
| 2026-05-09 03:12 | 41.82695 | 39.96047 | 37154 ft | 493 kts | 90° |
| 2026-05-09 03:12 | 41.82332 | 40.05284 | 37153 ft | 493 kts | 90° |
| 2026-05-09 03:13 | 41.81771 | 40.19156 | 37155 ft | 492 kts | 90° |
| 2026-05-09 03:13 | 41.81387 | 40.28396 | 37153 ft | 491 kts | 90° |
| 2026-05-09 03:14 | 41.81034 | 40.36755 | 37154 ft | 491 kts | 90° |
| 2026-05-09 03:14 | 41.80638 | 40.45953 | 37155 ft | 492 kts | 90° |
| 2026-05-09 03:15 | 41.80231 | 40.55239 | 37154 ft | 492 kts | 90° |
| 2026-05-09 03:15 | 41.79818 | 40.64471 | 37157 ft | 492 kts | 90° |
| 2026-05-09 03:16 | 41.79376 | 40.73698 | 37157 ft | 492 kts | 91° |
| 2026-05-09 03:16 | 41.78920 | 40.82940 | 37156 ft | 492 kts | 91° |
| 2026-05-09 03:17 | 41.78455 | 40.92187 | 37158 ft | 492 kts | 91° |
| 2026-05-09 03:17 | 41.77986 | 41.01395 | 37161 ft | 491 kts | 91° |
| 2026-05-09 03:18 | 41.77510 | 41.10595 | 37164 ft | 491 kts | 91° |
| 2026-05-09 03:18 | 41.77026 | 41.19797 | 37157 ft | 491 kts | 91° |
| 2026-05-09 03:19 | 41.76533 | 41.29034 | 37177 ft | 491 kts | 91° |
| 2026-05-09 03:19 | 41.76036 | 41.38217 | 37164 ft | 491 kts | 91° |
| 2026-05-09 03:20 | 41.75528 | 41.47458 | 37162 ft | 492 kts | 91° |
| 2026-05-09 03:20 | 41.75014 | 41.56673 | 37168 ft | 492 kts | 91° |
| 2026-05-09 03:21 | 41.74498 | 41.65801 | 37164 ft | 491 kts | 92° |
| 2026-05-09 03:21 | 41.73968 | 41.75029 | 37160 ft | 491 kts | 92° |
| 2026-05-09 03:22 | 41.73432 | 41.84255 | 37170 ft | 491 kts | 92° |
| 2026-05-09 03:22 | 41.72889 | 41.93469 | 37205 ft | 491 kts | 92° |
| 2026-05-09 03:23 | 41.72339 | 42.02670 | 37212 ft | 491 kts | 92° |
| 2026-05-09 03:23 | 41.71780 | 42.11900 | 37213 ft | 491 kts | 92° |
| 2026-05-09 03:24 | 41.71214 | 42.21103 | 37209 ft | 491 kts | 92° |
| 2026-05-09 03:24 | 41.70642 | 42.30299 | 37221 ft | 491 kts | 92° |
| 2026-05-09 03:25 | 41.70062 | 42.39485 | 37219 ft | 491 kts | 92° |
| 2026-05-09 03:25 | 41.69476 | 42.48676 | 37223 ft | 490 kts | 92° |
| 2026-05-09 03:26 | 41.68883 | 42.57836 | 37225 ft | 490 kts | 92° |
| 2026-05-09 03:26 | 41.68284 | 42.66994 | 37231 ft | 490 kts | 93° |
| 2026-05-09 03:27 | 41.67675 | 42.76191 | 37228 ft | 490 kts | 93° |
| 2026-05-09 03:27 | 41.67062 | 42.85316 | 37244 ft | 490 kts | 93° |
| 2026-05-09 03:28 | 41.66436 | 42.94520 | 37374 ft | 490 kts | 93° |
| 2026-05-09 03:28 | 41.66121 | 42.99112 | 37243 ft | 491 kts | 93° |
| 2026-05-09 03:28 | 41.65804 | 43.03690 | 37245 ft | 489 kts | 93° |
| 2026-05-09 03:29 | 41.65171 | 43.12763 | 37255 ft | 487 kts | 93° |
| 2026-05-09 03:29 | 41.64530 | 43.21865 | 37261 ft | 487 kts | 93° |
| 2026-05-09 03:30 | 41.63880 | 43.30996 | 37246 ft | 487 kts | 93° |
| 2026-05-09 03:30 | 41.63226 | 43.40071 | 37242 ft | 487 kts | 93° |
| 2026-05-09 03:31 | 41.62566 | 43.49131 | 37244 ft | 486 kts | 93° |
| 2026-05-09 03:31 | 41.61901 | 43.58204 | 37236 ft | 486 kts | 93° |
| 2026-05-09 03:32 | 41.61230 | 43.67281 | 37238 ft | 486 kts | 94° |
| 2026-05-09 03:32 | 41.60547 | 43.76418 | 37243 ft | 486 kts | 94° |
| 2026-05-09 03:33 | 41.59862 | 43.85489 | 37244 ft | 486 kts | 94° |
| 2026-05-09 03:33 | 41.59172 | 43.94521 | 37250 ft | 485 kts | 94° |
| 2026-05-09 03:34 | 41.58472 | 44.03605 | 37248 ft | 485 kts | 94° |
| 2026-05-09 03:34 | 41.57767 | 44.12664 | 37234 ft | 485 kts | 94° |
| 2026-05-09 03:35 | 41.57007 | 44.21719 | 37229 ft | 486 kts | 97° |
| 2026-05-09 03:35 | 41.55333 | 44.30564 | 37230 ft | 489 kts | 106° |
| 2026-05-09 03:36 | 41.53120 | 44.39284 | 37216 ft | 490 kts | 107° |
| 2026-05-09 03:36 | 41.50918 | 44.47991 | 37232 ft | 489 kts | 107° |
| 2026-05-09 03:37 | 41.48723 | 44.56678 | 37228 ft | 489 kts | 107° |
| 2026-05-09 03:37 | 41.46542 | 44.65316 | 37226 ft | 489 kts | 107° |
| 2026-05-09 03:38 | 41.44333 | 44.74054 | 37230 ft | 489 kts | 107° |
| 2026-05-09 03:38 | 41.42136 | 44.82729 | 37209 ft | 490 kts | 107° |
| 2026-05-09 03:39 | 41.39947 | 44.91360 | 37224 ft | 490 kts | 107° |
| 2026-05-09 03:39 | 41.37734 | 45.00061 | 37234 ft | 490 kts | 107° |
| 2026-05-09 03:40 | 41.35523 | 45.08731 | 37232 ft | 490 kts | 108° |
| 2026-05-09 03:40 | 41.33290 | 45.17455 | 37217 ft | 491 kts | 108° |
| 2026-05-09 03:41 | 41.31058 | 45.26148 | 37209 ft | 492 kts | 108° |
| 2026-05-09 03:41 | 41.28830 | 45.34796 | 37206 ft | 492 kts | 108° |
| 2026-05-09 03:42 | 41.26577 | 45.43509 | 37207 ft | 492 kts | 108° |
| 2026-05-09 03:42 | 41.24329 | 45.52181 | 37199 ft | 492 kts | 108° |
| 2026-05-09 03:43 | 41.22064 | 45.60885 | 37202 ft | 493 kts | 108° |
| 2026-05-09 03:43 | 41.19787 | 45.69593 | 37200 ft | 493 kts | 109° |
| 2026-05-09 03:44 | 41.17509 | 45.78251 | 37199 ft | 494 kts | 109° |
| 2026-05-09 03:44 | 41.15207 | 45.86975 | 37189 ft | 494 kts | 109° |
| 2026-05-09 03:45 | 41.12899 | 45.95688 | 37185 ft | 494 kts | 109° |
| 2026-05-09 03:45 | 41.10599 | 46.04343 | 37190 ft | 494 kts | 109° |
| 2026-05-09 03:46 | 41.08276 | 46.13051 | 37185 ft | 494 kts | 109° |
| 2026-05-09 03:46 | 41.05973 | 46.21659 | 37194 ft | 494 kts | 109° |
| 2026-05-09 03:47 | 41.03655 | 46.30297 | 37184 ft | 495 kts | 109° |
| 2026-05-09 03:47 | 41.01326 | 46.39038 | 37186 ft | 496 kts | 109° |
| 2026-05-09 03:48 | 40.99009 | 46.47704 | 37172 ft | 496 kts | 109° |
| 2026-05-09 03:48 | 40.96668 | 46.56431 | 37165 ft | 496 kts | 109° |
| 2026-05-09 03:49 | 40.94333 | 46.65103 | 37162 ft | 497 kts | 110° |
| 2026-05-09 03:49 | 40.91978 | 46.73817 | 37176 ft | 497 kts | 110° |
| 2026-05-09 03:50 | 40.89899 | 46.82601 | 37185 ft | 497 kts | 101° |
| 2026-05-09 03:50 | 40.89110 | 46.91788 | 37164 ft | 498 kts | 95° |
| 2026-05-09 03:51 | 40.88421 | 47.01012 | 37176 ft | 498 kts | 95° |
| 2026-05-09 03:51 | 40.87732 | 47.10210 | 37178 ft | 499 kts | 96° |
| 2026-05-09 03:52 | 40.87038 | 47.19434 | 37183 ft | 499 kts | 96° |
| 2026-05-09 03:52 | 40.86342 | 47.28617 | 37186 ft | 500 kts | 96° |
| 2026-05-09 03:53 | 40.85636 | 47.37863 | 37195 ft | 500 kts | 96° |
| 2026-05-09 03:53 | 40.84925 | 47.47100 | 37197 ft | 500 kts | 96° |
| 2026-05-09 03:54 | 40.84283 | 47.56371 | 37181 ft | 500 kts | 94° |
| 2026-05-09 03:54 | 40.83723 | 47.65630 | 37184 ft | 500 kts | 95° |
| 2026-05-09 03:55 | 40.83157 | 47.74858 | 37183 ft | 501 kts | 95° |
| 2026-05-09 03:55 | 40.82580 | 47.84135 | 37177 ft | 500 kts | 95° |
| 2026-05-09 03:56 | 40.82298 | 47.88629 | 37039 ft | 489 kts | 96° |
| 2026-05-09 03:56 | 40.82014 | 47.93132 | 36442 ft | 486 kts | 95° |
| 2026-05-09 03:56 | 40.81729 | 47.97614 | 35638 ft | 488 kts | 95° |
| 2026-05-09 03:56 | 40.81408 | 48.02125 | 34751 ft | 489 kts | 98° |
| 2026-05-09 03:57 | 40.80910 | 48.06597 | 33756 ft | 492 kts | 97° |
| 2026-05-09 03:57 | 40.80562 | 48.11118 | 32952 ft | 491 kts | 95° |
| 2026-05-09 03:57 | 40.80265 | 48.15641 | 32263 ft | 481 kts | 94° |
| 2026-05-09 03:57 | 40.79979 | 48.19975 | 31388 ft | 473 kts | 93° |
| 2026-05-09 03:58 | 40.79692 | 48.24339 | 30354 ft | 466 kts | 92° |
| 2026-05-09 03:58 | 40.79413 | 48.28599 | 29085 ft | 460 kts | 92° |
| 2026-05-09 03:58 | 40.79139 | 48.32767 | 27918 ft | 452 kts | 92° |
| 2026-05-09 03:58 | 40.78868 | 48.36902 | 27000 ft | 438 kts | 92° |
| 2026-05-09 03:59 | 40.78606 | 48.40881 | 26362 ft | 429 kts | 92° |
| 2026-05-09 03:59 | 40.78348 | 48.44838 | 25835 ft | 436 kts | 92° |
| 2026-05-09 03:59 | 40.78082 | 48.48918 | 25128 ft | 445 kts | 92° |
| 2026-05-09 03:59 | 40.77811 | 48.53041 | 24548 ft | 446 kts | 92° |
| 2026-05-09 04:00 | 40.77542 | 48.57127 | 23955 ft | 449 kts | 93° |
| 2026-05-09 04:00 | 40.77267 | 48.61290 | 23343 ft | 449 kts | 92° |
| 2026-05-09 04:00 | 40.76994 | 48.65398 | 22739 ft | 448 kts | 93° |
| 2026-05-09 04:00 | 40.76718 | 48.69540 | 22136 ft | 446 kts | 94° |
| 2026-05-09 04:01 | 40.76443 | 48.73645 | 21533 ft | 443 kts | 93° |
| 2026-05-09 04:01 | 40.76169 | 48.77728 | 20940 ft | 440 kts | 94° |
| 2026-05-09 04:01 | 40.75897 | 48.81767 | 20349 ft | 436 kts | 94° |
| 2026-05-09 04:01 | 40.75626 | 48.85754 | 19768 ft | 432 kts | 94° |
| 2026-05-09 04:02 | 40.75359 | 48.89688 | 19187 ft | 430 kts | 94° |
| 2026-05-09 04:02 | 40.75089 | 48.93635 | 18616 ft | 427 kts | 94° |
| 2026-05-09 04:02 | 40.74822 | 48.97531 | 18053 ft | 424 kts | 94° |
| 2026-05-09 04:02 | 40.74554 | 49.01411 | 17477 ft | 421 kts | 94° |
| 2026-05-09 04:03 | 40.74287 | 49.05276 | 16915 ft | 418 kts | 94° |
| 2026-05-09 04:03 | 40.74023 | 49.09079 | 16355 ft | 413 kts | 94° |
| 2026-05-09 04:03 | 40.73758 | 49.12855 | 15801 ft | 405 kts | 94° |
| 2026-05-09 04:03 | 40.73504 | 49.16486 | 15269 ft | 396 kts | 94° |
| 2026-05-09 04:04 | 40.73253 | 49.20049 | 14748 ft | 386 kts | 94° |
| 2026-05-09 04:04 | 40.73016 | 49.23564 | 14233 ft | 376 kts | 92° |
| 2026-05-09 04:04 | 40.72945 | 49.26966 | 13732 ft | 366 kts | 89° |
| 2026-05-09 04:04 | 40.72910 | 49.30310 | 13259 ft | 356 kts | 89° |
| 2026-05-09 04:05 | 40.72874 | 49.33531 | 12801 ft | 348 kts | 89° |
| 2026-05-09 04:05 | 40.72838 | 49.36697 | 12358 ft | 339 kts | 89° |
| 2026-05-09 04:05 | 40.72802 | 49.39790 | 11906 ft | 332 kts | 89° |
| 2026-05-09 04:05 | 40.72767 | 49.42784 | 11491 ft | 325 kts | 89° |
| 2026-05-09 04:06 | 40.72731 | 49.45775 | 11059 ft | 320 kts | 89° |
| 2026-05-09 04:06 | 40.72696 | 49.48694 | 10462 ft | 320 kts | 89° |
| 2026-05-09 04:06 | 40.72659 | 49.51609 | 10124 ft | 312 kts | 89° |
| 2026-05-09 04:06 | 40.72623 | 49.54453 | 9696 ft | 308 kts | 89° |
| 2026-05-09 04:07 | 40.72587 | 49.57244 | 9322 ft | 301 kts | 89° |
| 2026-05-09 04:07 | 40.72551 | 49.59984 | 8926 ft | 298 kts | 89° |
| 2026-05-09 04:07 | 40.72515 | 49.62677 | 8528 ft | 293 kts | 88° |
| 2026-05-09 04:07 | 40.72477 | 49.65375 | 8161 ft | 287 kts | 89° |
| 2026-05-09 04:08 | 40.72441 | 49.67974 | 7787 ft | 282 kts | 89° |
| 2026-05-09 04:08 | 40.72404 | 49.70549 | 7429 ft | 279 kts | 88° |
| 2026-05-09 04:08 | 40.72375 | 49.72635 | 7121 ft | 278 kts | 89° |
| 2026-05-09 04:08 | 40.72337 | 49.75162 | 6759 ft | 276 kts | 88° |
| 2026-05-09 04:09 | 40.72304 | 49.77393 | 6456 ft | 274 kts | 88° |
| 2026-05-09 04:09 | 40.72267 | 49.79896 | 6097 ft | 274 kts | 88° |
| 2026-05-09 04:09 | 40.72229 | 49.82398 | 5731 ft | 270 kts | 88° |
| 2026-05-09 04:09 | 40.72107 | 49.84863 | 5412 ft | 273 kts | 99° |
| 2026-05-09 04:10 | 40.71396 | 49.87170 | 5025 ft | 275 kts | 116° |
| 2026-05-09 04:10 | 40.70490 | 49.89352 | 4651 ft | 269 kts | 116° |
| 2026-05-09 04:10 | 40.69618 | 49.91478 | 4354 ft | 261 kts | 116° |
| 2026-05-09 04:10 | 40.68760 | 49.93574 | 3994 ft | 258 kts | 116° |
| 2026-05-09 04:11 | 40.67919 | 49.95633 | 3612 ft | 255 kts | 116° |
| 2026-05-09 04:11 | 40.67086 | 49.97670 | 3320 ft | 250 kts | 116° |
| 2026-05-09 04:11 | 40.66273 | 49.99651 | 3017 ft | 245 kts | 117° |
| 2026-05-09 04:11 | 40.65470 | 50.01597 | 2690 ft | 242 kts | 116° |
| 2026-05-09 04:12 | 40.64670 | 50.03532 | 2410 ft | 237 kts | 121° |
| 2026-05-09 04:12 | 40.63544 | 50.05062 | 2128 ft | 235 kts | 146° |
| 2026-05-09 04:12 | 40.62064 | 50.05803 | 1983 ft | 222 kts | 172° |
| 2026-05-09 04:12 | 40.60576 | 50.06024 | 1971 ft | 206 kts | 176° |
| 2026-05-09 04:13 | 40.59216 | 50.06110 | 1991 ft | 187 kts | 180° |
| 2026-05-09 04:13 | 40.57952 | 50.06128 | 1900 ft | 175 kts | 181° |
| 2026-05-09 04:13 | 40.56768 | 50.06135 | 1696 ft | 160 kts | 181° |
| 2026-05-09 04:13 | 40.55671 | 50.06146 | 1471 ft | 153 kts | 181° |
| 2026-05-09 04:14 | 40.54649 | 50.06162 | 1238 ft | 141 kts | 181° |
| 2026-05-09 04:14 | 40.53692 | 50.06179 | 1052 ft | 136 kts | 180° |
| 2026-05-09 04:14 | 40.52744 | 50.06197 | 868 ft | 133 kts | 180° |
| 2026-05-09 04:14 | 40.51821 | 50.06211 | 699 ft | 132 kts | 180° |
| 2026-05-09 04:15 | 40.50903 | 50.06226 | 522 ft | 130 kts | 180° |
| 2026-05-09 04:15 | 40.50006 | 50.06244 | 338 ft | 128 kts | 180° |
| 2026-05-09 04:15 | 40.49113 | 50.06269 | 179 ft | 127 kts | 178° |
| 2026-05-09 04:15 | 40.48236 | 50.06285 | 14 ft | 125 kts | 178° |
| 2026-05-09 04:16 | 40.47452 | 50.06296 | 2 ft | 97 kts | 179° |
| 2026-05-09 04:16 | 40.46831 | 50.06305 | -1 ft | 84 kts | 178° |
| 2026-05-09 04:16 | 40.46297 | 50.06318 | -8 ft | 62 kts | 181° |
| 2026-05-09 04:16 | 40.45925 | 50.06325 | -10 ft | 45 kts | 178° |
| 2026-05-09 04:17 | 40.45712 | 50.06329 | -10 ft | 16 kts | 146° |
| 2026-05-09 04:17 | 40.45692 | 50.06444 | -10 ft | 8 kts | 93° |
| 2026-05-09 04:17 | 40.45690 | 50.06460 | -10 ft | 4 kts | 94° |
| 2026-05-09 04:17 | 40.45688 | 50.06535 | -10 ft | 8 kts | 120° |
| 2026-05-09 04:18 | 40.45651 | 50.06546 | -10 ft | 6 kts | 155° |
| 2026-05-09 04:18 | 40.45644 | 50.06576 | -9 ft | 7 kts | 90° |
| 2026-05-09 04:18 | 40.45644 | 50.06590 | -9 ft | 0 kts | 90° |